sensor_id;sensor_type;location;lat;lon;timestamp;P1;durP1;ratioP1;P2;durP2;ratioP2
22476;SDS011;65006;51.698;-0.292;2023-08-20T00:01:07;9.75;;;1.85;;
22476;SDS011;65006;51.698;-0.292;2023-08-20T00:03:35;15.57;;;1.88;;
22476;SDS011;65006;51.698;-0.292;2023-08-20T00:06:01;7.63;;;2.65;;
22476;SDS011;65006;51.698;-0.292;2023-08-20T00:08:29;9.05;;;2.03;;
22476;SDS011;65006;51.698;-0.292;2023-08-20T00:10:55;9.13;;;1.83;;
22476;SDS011;65006;51.698;-0.292;2023-08-20T00:13:21;10.60;;;1.95;;
22476;SDS011;65006;51.698;-0.292;2023-08-20T00:15:48;8.20;;;1.75;;
22476;SDS011;65006;51.698;-0.292;2023-08-20T00:18:14;10.70;;;2.70;;
22476;SDS011;65006;51.698;-0.292;2023-08-20T00:20:40;7.30;;;2.00;;
22476;SDS011;65006;51.698;-0.292;2023-08-20T00:23:06;8.25;;;1.50;;
22476;SDS011;65006;51.698;-0.292;2023-08-20T00:25:32;9.30;;;2.05;;
22476;SDS011;65006;51.698;-0.292;2023-08-20T00:27:58;7.07;;;2.03;;
22476;SDS011;65006;51.698;-0.292;2023-08-20T00:30:24;8.65;;;1.73;;
22476;SDS011;65006;51.698;-0.292;2023-08-20T00:32:50;7.35;;;1.42;;
22476;SDS011;65006;51.698;-0.292;2023-08-20T00:35:17;10.75;;;1.48;;
22476;SDS011;65006;51.698;-0.292;2023-08-20T00:37:43;9.18;;;1.73;;
22476;SDS011;65006;51.698;-0.292;2023-08-20T00:40:10;9.80;;;1.75;;
22476;SDS011;65006;51.698;-0.292;2023-08-20T00:42:36;9.18;;;1.90;;
22476;SDS011;65006;51.698;-0.292;2023-08-20T00:45:03;5.88;;;1.27;;
22476;SDS011;65006;51.698;-0.292;2023-08-20T00:47:29;14.18;;;1.73;;
22476;SDS011;65006;51.698;-0.292;2023-08-20T00:49:55;13.25;;;1.90;;
22476;SDS011;65006;51.698;-0.292;2023-08-20T00:52:21;10.35;;;1.52;;
22476;SDS011;65006;51.698;-0.292;2023-08-20T00:54:47;10.02;;;1.77;;
22476;SDS011;65006;51.698;-0.292;2023-08-20T00:57:14;10.13;;;1.50;;
22476;SDS011;65006;51.698;-0.292;2023-08-20T00:59:40;7.72;;;1.45;;
22476;SDS011;65006;51.698;-0.292;2023-08-20T01:02:06;12.00;;;1.40;;
22476;SDS011;65006;51.698;-0.292;2023-08-20T01:04:32;6.55;;;1.75;;
22476;SDS011;65006;51.698;-0.292;2023-08-20T01:12:13;13.07;;;2.22;;
22476;SDS011;65006;51.698;-0.292;2023-08-20T01:14:40;9.05;;;2.00;;
22476;SDS011;65006;51.698;-0.292;2023-08-20T01:17:06;10.35;;;1.75;;
22476;SDS011;65006;51.698;-0.292;2023-08-20T01:19:32;14.00;;;2.13;;
22476;SDS011;65006;51.698;-0.292;2023-08-20T01:22:05;9.65;;;2.05;;
22476;SDS011;65006;51.698;-0.292;2023-08-20T01:29:36;15.07;;;3.20;;
22476;SDS011;65006;51.698;-0.292;2023-08-20T01:34:29;14.95;;;2.95;;
22476;SDS011;65006;51.698;-0.292;2023-08-20T01:36:55;10.88;;;1.85;;
22476;SDS011;65006;51.698;-0.292;2023-08-20T01:39:21;14.15;;;2.60;;
22476;SDS011;65006;51.698;-0.292;2023-08-20T01:41:48;14.45;;;2.45;;
22476;SDS011;65006;51.698;-0.292;2023-08-20T01:44:14;9.63;;;1.70;;
22476;SDS011;65006;51.698;-0.292;2023-08-20T01:46:40;13.00;;;2.50;;
22476;SDS011;65006;51.698;-0.292;2023-08-20T01:49:06;9.00;;;1.77;;
22476;SDS011;65006;51.698;-0.292;2023-08-20T01:51:32;12.00;;;2.30;;
22476;SDS011;65006;51.698;-0.292;2023-08-20T01:53:58;13.88;;;2.65;;
22476;SDS011;65006;51.698;-0.292;2023-08-20T01:56:24;12.38;;;2.65;;
22476;SDS011;65006;51.698;-0.292;2023-08-20T01:58:50;14.48;;;2.50;;
22476;SDS011;65006;51.698;-0.292;2023-08-20T02:01:16;18.27;;;2.75;;
22476;SDS011;65006;51.698;-0.292;2023-08-20T02:03:42;14.50;;;2.47;;
22476;SDS011;65006;51.698;-0.292;2023-08-20T02:06:08;12.25;;;2.22;;
22476;SDS011;65006;51.698;-0.292;2023-08-20T02:08:34;16.10;;;3.00;;
22476;SDS011;65006;51.698;-0.292;2023-08-20T02:11:01;14.43;;;3.28;;
22476;SDS011;65006;51.698;-0.292;2023-08-20T02:13:27;16.20;;;2.28;;
22476;SDS011;65006;51.698;-0.292;2023-08-20T02:16:00;22.27;;;2.60;;
22476;SDS011;65006;51.698;-0.292;2023-08-20T02:18:27;16.35;;;2.40;;
22476;SDS011;65006;51.698;-0.292;2023-08-20T02:20:53;9.98;;;2.22;;
22476;SDS011;65006;51.698;-0.292;2023-08-20T02:23:19;14.35;;;2.67;;
22476;SDS011;65006;51.698;-0.292;2023-08-20T02:25:46;14.05;;;2.17;;
22476;SDS011;65006;51.698;-0.292;2023-08-20T02:28:12;13.93;;;2.30;;
22476;SDS011;65006;51.698;-0.292;2023-08-20T02:30:43;19.17;;;3.70;;
22476;SDS011;65006;51.698;-0.292;2023-08-20T02:33:10;8.80;;;2.40;;
22476;SDS011;65006;51.698;-0.292;2023-08-20T02:35:39;12.90;;;2.67;;
22476;SDS011;65006;51.698;-0.292;2023-08-20T02:38:05;16.83;;;3.17;;
22476;SDS011;65006;51.698;-0.292;2023-08-20T02:40:32;18.27;;;3.67;;
22476;SDS011;65006;51.698;-0.292;2023-08-20T02:42:58;10.68;;;2.05;;
22476;SDS011;65006;51.698;-0.292;2023-08-20T02:45:24;10.23;;;2.58;;
22476;SDS011;65006;51.698;-0.292;2023-08-20T02:47:50;23.42;;;3.53;;
22476;SDS011;65006;51.698;-0.292;2023-08-20T02:50:16;15.57;;;2.75;;
22476;SDS011;65006;51.698;-0.292;2023-08-20T02:52:42;9.45;;;2.47;;
22476;SDS011;65006;51.698;-0.292;2023-08-20T02:55:08;15.20;;;1.90;;
22476;SDS011;65006;51.698;-0.292;2023-08-20T02:57:34;12.57;;;1.98;;
22476;SDS011;65006;51.698;-0.292;2023-08-20T03:00:00;14.90;;;2.75;;
22476;SDS011;65006;51.698;-0.292;2023-08-20T03:02:27;12.82;;;1.90;;
22476;SDS011;65006;51.698;-0.292;2023-08-20T03:04:53;13.77;;;2.55;;
22476;SDS011;65006;51.698;-0.292;2023-08-20T03:07:21;14.18;;;1.83;;
22476;SDS011;65006;51.698;-0.292;2023-08-20T03:12:13;17.95;;;3.05;;
22476;SDS011;65006;51.698;-0.292;2023-08-20T03:14:39;13.32;;;2.15;;
22476;SDS011;65006;51.698;-0.292;2023-08-20T03:17:05;13.57;;;2.30;;
22476;SDS011;65006;51.698;-0.292;2023-08-20T03:19:32;9.68;;;1.98;;
22476;SDS011;65006;51.698;-0.292;2023-08-20T03:21:58;12.07;;;2.00;;
22476;SDS011;65006;51.698;-0.292;2023-08-20T03:24:24;9.68;;;2.67;;
22476;SDS011;65006;51.698;-0.292;2023-08-20T03:26:50;14.40;;;2.08;;
22476;SDS011;65006;51.698;-0.292;2023-08-20T03:29:16;14.20;;;2.35;;
22476;SDS011;65006;51.698;-0.292;2023-08-20T03:31:42;7.15;;;2.00;;
22476;SDS011;65006;51.698;-0.292;2023-08-20T03:34:08;13.63;;;2.40;;
22476;SDS011;65006;51.698;-0.292;2023-08-20T03:36:35;11.32;;;2.20;;
22476;SDS011;65006;51.698;-0.292;2023-08-20T03:39:01;15.98;;;1.95;;
22476;SDS011;65006;51.698;-0.292;2023-08-20T03:41:28;13.88;;;1.95;;
22476;SDS011;65006;51.698;-0.292;2023-08-20T03:43:54;20.38;;;2.08;;
22476;SDS011;65006;51.698;-0.292;2023-08-20T03:46:20;7.55;;;2.05;;
22476;SDS011;65006;51.698;-0.292;2023-08-20T03:48:46;12.40;;;1.70;;
22476;SDS011;65006;51.698;-0.292;2023-08-20T03:51:12;10.73;;;1.80;;
22476;SDS011;65006;51.698;-0.292;2023-08-20T03:53:38;11.75;;;2.00;;
22476;SDS011;65006;51.698;-0.292;2023-08-20T03:56:04;9.63;;;2.17;;
22476;SDS011;65006;51.698;-0.292;2023-08-20T03:58:30;8.60;;;1.85;;
22476;SDS011;65006;51.698;-0.292;2023-08-20T04:00:56;22.38;;;2.20;;
22476;SDS011;65006;51.698;-0.292;2023-08-20T04:03:22;9.68;;;1.98;;
22476;SDS011;65006;51.698;-0.292;2023-08-20T04:05:49;10.30;;;1.98;;
22476;SDS011;65006;51.698;-0.292;2023-08-20T04:08:15;12.38;;;2.03;;
22476;SDS011;65006;51.698;-0.292;2023-08-20T04:10:44;22.17;;;2.83;;
22476;SDS011;65006;51.698;-0.292;2023-08-20T04:13:10;11.90;;;2.03;;
22476;SDS011;65006;51.698;-0.292;2023-08-20T04:15:38;14.68;;;2.15;;
22476;SDS011;65006;51.698;-0.292;2023-08-20T04:18:04;9.50;;;1.67;;
22476;SDS011;65006;51.698;-0.292;2023-08-20T04:20:30;11.20;;;1.95;;
22476;SDS011;65006;51.698;-0.292;2023-08-20T04:22:56;16.50;;;2.78;;
22476;SDS011;65006;51.698;-0.292;2023-08-20T04:25:23;16.50;;;2.28;;
22476;SDS011;65006;51.698;-0.292;2023-08-20T04:27:49;10.80;;;1.80;;
22476;SDS011;65006;51.698;-0.292;2023-08-20T04:30:14;17.42;;;2.83;;
22476;SDS011;65006;51.698;-0.292;2023-08-20T04:32:41;16.92;;;2.85;;
22476;SDS011;65006;51.698;-0.292;2023-08-20T04:35:07;17.63;;;3.58;;
22476;SDS011;65006;51.698;-0.292;2023-08-20T04:37:33;8.40;;;2.55;;
22476;SDS011;65006;51.698;-0.292;2023-08-20T04:39:59;14.82;;;2.38;;
22476;SDS011;65006;51.698;-0.292;2023-08-20T04:42:25;13.55;;;2.50;;
22476;SDS011;65006;51.698;-0.292;2023-08-20T04:44:51;14.50;;;3.15;;
22476;SDS011;65006;51.698;-0.292;2023-08-20T04:47:17;12.20;;;3.13;;
22476;SDS011;65006;51.698;-0.292;2023-08-20T04:49:43;11.48;;;2.20;;
22476;SDS011;65006;51.698;-0.292;2023-08-20T04:52:09;12.02;;;2.67;;
22476;SDS011;65006;51.698;-0.292;2023-08-20T04:54:35;11.32;;;2.83;;
22476;SDS011;65006;51.698;-0.292;2023-08-20T04:57:01;14.27;;;2.25;;
22476;SDS011;65006;51.698;-0.292;2023-08-20T04:59:27;16.02;;;2.65;;
22476;SDS011;65006;51.698;-0.292;2023-08-20T05:01:53;12.32;;;2.65;;
22476;SDS011;65006;51.698;-0.292;2023-08-20T05:04:19;11.10;;;2.60;;
22476;SDS011;65006;51.698;-0.292;2023-08-20T05:06:45;12.68;;;2.22;;
22476;SDS011;65006;51.698;-0.292;2023-08-20T05:09:11;11.32;;;2.72;;
22476;SDS011;65006;51.698;-0.292;2023-08-20T05:11:37;16.10;;;2.97;;
22476;SDS011;65006;51.698;-0.292;2023-08-20T05:14:03;11.13;;;2.47;;
22476;SDS011;65006;51.698;-0.292;2023-08-20T05:16:29;12.27;;;2.50;;
22476;SDS011;65006;51.698;-0.292;2023-08-20T05:18:55;17.05;;;3.65;;
22476;SDS011;65006;51.698;-0.292;2023-08-20T05:21:21;14.52;;;3.33;;
22476;SDS011;65006;51.698;-0.292;2023-08-20T05:23:47;14.40;;;3.03;;
22476;SDS011;65006;51.698;-0.292;2023-08-20T05:26:13;20.92;;;3.40;;
22476;SDS011;65006;51.698;-0.292;2023-08-20T05:28:39;14.25;;;3.63;;
22476;SDS011;65006;51.698;-0.292;2023-08-20T05:31:05;17.02;;;3.22;;
22476;SDS011;65006;51.698;-0.292;2023-08-20T05:33:31;22.52;;;4.18;;
22476;SDS011;65006;51.698;-0.292;2023-08-20T05:35:59;18.77;;;3.15;;
22476;SDS011;65006;51.698;-0.292;2023-08-20T05:38:25;11.75;;;3.28;;
22476;SDS011;65006;51.698;-0.292;2023-08-20T05:40:51;18.20;;;4.22;;
22476;SDS011;65006;51.698;-0.292;2023-08-20T05:43:17;10.27;;;2.92;;
22476;SDS011;65006;51.698;-0.292;2023-08-20T05:45:43;14.70;;;3.08;;
22476;SDS011;65006;51.698;-0.292;2023-08-20T05:48:09;16.35;;;3.55;;
22476;SDS011;65006;51.698;-0.292;2023-08-20T05:50:35;19.00;;;3.70;;
22476;SDS011;65006;51.698;-0.292;2023-08-20T05:53:01;18.98;;;4.32;;
22476;SDS011;65006;51.698;-0.292;2023-08-20T05:55:27;18.58;;;4.45;;
22476;SDS011;65006;51.698;-0.292;2023-08-20T05:57:53;20.40;;;4.78;;
22476;SDS011;65006;51.698;-0.292;2023-08-20T06:00:19;12.77;;;4.35;;
22476;SDS011;65006;51.698;-0.292;2023-08-20T06:02:45;15.80;;;4.72;;
22476;SDS011;65006;51.698;-0.292;2023-08-20T06:05:11;14.98;;;3.72;;
22476;SDS011;65006;51.698;-0.292;2023-08-20T06:10:04;14.02;;;4.03;;
22476;SDS011;65006;51.698;-0.292;2023-08-20T06:12:30;16.30;;;3.47;;
22476;SDS011;65006;51.698;-0.292;2023-08-20T06:14:56;13.70;;;3.50;;
22476;SDS011;65006;51.698;-0.292;2023-08-20T06:17:22;13.77;;;3.60;;
22476;SDS011;65006;51.698;-0.292;2023-08-20T06:19:48;14.13;;;3.53;;
22476;SDS011;65006;51.698;-0.292;2023-08-20T06:22:14;16.73;;;3.65;;
22476;SDS011;65006;51.698;-0.292;2023-08-20T06:24:40;12.38;;;3.08;;
22476;SDS011;65006;51.698;-0.292;2023-08-20T06:27:06;15.20;;;2.72;;
22476;SDS011;65006;51.698;-0.292;2023-08-20T06:29:32;10.65;;;2.88;;
22476;SDS011;65006;51.698;-0.292;2023-08-20T06:31:58;11.93;;;3.28;;
22476;SDS011;65006;51.698;-0.292;2023-08-20T06:34:24;11.00;;;2.58;;
22476;SDS011;65006;51.698;-0.292;2023-08-20T06:36:50;12.40;;;3.10;;
22476;SDS011;65006;51.698;-0.292;2023-08-20T06:39:16;11.18;;;3.00;;
22476;SDS011;65006;51.698;-0.292;2023-08-20T06:41:43;13.98;;;3.17;;
22476;SDS011;65006;51.698;-0.292;2023-08-20T06:44:09;17.05;;;2.45;;
22476;SDS011;65006;51.698;-0.292;2023-08-20T06:46:35;13.65;;;2.47;;
22476;SDS011;65006;51.698;-0.292;2023-08-20T06:49:02;9.50;;;2.70;;
22476;SDS011;65006;51.698;-0.292;2023-08-20T06:51:28;17.27;;;2.22;;
22476;SDS011;65006;51.698;-0.292;2023-08-20T06:53:54;14.40;;;3.63;;
22476;SDS011;65006;51.698;-0.292;2023-08-20T06:56:21;19.80;;;3.67;;
22476;SDS011;65006;51.698;-0.292;2023-08-20T06:58:47;12.52;;;2.20;;
22476;SDS011;65006;51.698;-0.292;2023-08-20T07:01:13;14.52;;;2.83;;
22476;SDS011;65006;51.698;-0.292;2023-08-20T07:03:40;15.27;;;2.92;;
22476;SDS011;65006;51.698;-0.292;2023-08-20T07:08:32;12.45;;;2.28;;
22476;SDS011;65006;51.698;-0.292;2023-08-20T07:10:58;13.55;;;3.47;;
22476;SDS011;65006;51.698;-0.292;2023-08-20T07:13:24;9.80;;;2.70;;
22476;SDS011;65006;51.698;-0.292;2023-08-20T07:15:50;10.68;;;2.50;;
22476;SDS011;65006;51.698;-0.292;2023-08-20T07:18:16;16.35;;;3.25;;
22476;SDS011;65006;51.698;-0.292;2023-08-20T07:20:42;13.15;;;3.50;;
22476;SDS011;65006;51.698;-0.292;2023-08-20T07:23:09;16.38;;;2.92;;
22476;SDS011;65006;51.698;-0.292;2023-08-20T07:25:38;7.03;;;2.33;;
22476;SDS011;65006;51.698;-0.292;2023-08-20T07:28:05;6.80;;;2.35;;
22476;SDS011;65006;51.698;-0.292;2023-08-20T07:30:31;12.45;;;2.35;;
22476;SDS011;65006;51.698;-0.292;2023-08-20T07:32:57;9.48;;;2.20;;
22476;SDS011;65006;51.698;-0.292;2023-08-20T07:35:23;19.50;;;2.20;;
22476;SDS011;65006;51.698;-0.292;2023-08-20T07:37:50;7.85;;;1.80;;
22476;SDS011;65006;51.698;-0.292;2023-08-20T07:40:16;9.23;;;1.90;;
22476;SDS011;65006;51.698;-0.292;2023-08-20T07:42:42;19.17;;;3.40;;
22476;SDS011;65006;51.698;-0.292;2023-08-20T07:45:09;11.10;;;2.75;;
22476;SDS011;65006;51.698;-0.292;2023-08-20T07:47:36;13.27;;;2.65;;
22476;SDS011;65006;51.698;-0.292;2023-08-20T07:52:28;8.18;;;1.90;;
22476;SDS011;65006;51.698;-0.292;2023-08-20T07:54:53;7.65;;;1.50;;
22476;SDS011;65006;51.698;-0.292;2023-08-20T07:57:20;10.82;;;1.90;;
22476;SDS011;65006;51.698;-0.292;2023-08-20T07:59:46;6.95;;;2.00;;
22476;SDS011;65006;51.698;-0.292;2023-08-20T08:02:12;7.63;;;2.03;;
22476;SDS011;65006;51.698;-0.292;2023-08-20T08:04:38;11.32;;;2.60;;
22476;SDS011;65006;51.698;-0.292;2023-08-20T08:07:04;7.90;;;1.73;;
22476;SDS011;65006;51.698;-0.292;2023-08-20T08:09:31;9.75;;;1.50;;
22476;SDS011;65006;51.698;-0.292;2023-08-20T08:11:57;4.85;;;1.60;;
22476;SDS011;65006;51.698;-0.292;2023-08-20T08:14:24;8.05;;;2.08;;
22476;SDS011;65006;51.698;-0.292;2023-08-20T08:16:50;10.20;;;1.48;;
22476;SDS011;65006;51.698;-0.292;2023-08-20T08:19:17;9.23;;;1.80;;
22476;SDS011;65006;51.698;-0.292;2023-08-20T08:21:43;13.93;;;2.35;;
22476;SDS011;65006;51.698;-0.292;2023-08-20T08:24:10;9.57;;;1.80;;
22476;SDS011;65006;51.698;-0.292;2023-08-20T08:26:36;4.07;;;1.10;;
22476;SDS011;65006;51.698;-0.292;2023-08-20T08:29:02;10.40;;;2.33;;
22476;SDS011;65006;51.698;-0.292;2023-08-20T08:31:29;11.05;;;1.52;;
22476;SDS011;65006;51.698;-0.292;2023-08-20T08:33:55;7.22;;;1.48;;
22476;SDS011;65006;51.698;-0.292;2023-08-20T08:36:21;6.72;;;1.00;;
22476;SDS011;65006;51.698;-0.292;2023-08-20T08:38:49;5.30;;;0.88;;
22476;SDS011;65006;51.698;-0.292;2023-08-20T08:41:15;3.40;;;0.63;;
22476;SDS011;65006;51.698;-0.292;2023-08-20T08:43:41;3.55;;;1.17;;
22476;SDS011;65006;51.698;-0.292;2023-08-20T08:46:14;2.85;;;0.98;;
22476;SDS011;65006;51.698;-0.292;2023-08-20T08:48:40;6.40;;;1.20;;
22476;SDS011;65006;51.698;-0.292;2023-08-20T08:51:07;11.82;;;1.15;;
22476;SDS011;65006;51.698;-0.292;2023-08-20T08:53:33;5.72;;;1.10;;
22476;SDS011;65006;51.698;-0.292;2023-08-20T08:55:59;3.80;;;1.15;;
22476;SDS011;65006;51.698;-0.292;2023-08-20T08:58:25;3.78;;;0.80;;
22476;SDS011;65006;51.698;-0.292;2023-08-20T09:00:52;3.58;;;1.00;;
22476;SDS011;65006;51.698;-0.292;2023-08-20T09:03:18;6.55;;;1.40;;
22476;SDS011;65006;51.698;-0.292;2023-08-20T09:05:45;3.05;;;0.98;;
22476;SDS011;65006;51.698;-0.292;2023-08-20T09:08:18;9.30;;;1.30;;
22476;SDS011;65006;51.698;-0.292;2023-08-20T09:10:44;4.32;;;1.10;;
22476;SDS011;65006;51.698;-0.292;2023-08-20T09:13:10;3.47;;;0.80;;
22476;SDS011;65006;51.698;-0.292;2023-08-20T09:15:37;7.13;;;1.63;;
22476;SDS011;65006;51.698;-0.292;2023-08-20T09:18:03;6.93;;;1.02;;
22476;SDS011;65006;51.698;-0.292;2023-08-20T09:20:33;5.45;;;1.13;;
22476;SDS011;65006;51.698;-0.292;2023-08-20T09:23:01;8.82;;;1.45;;
22476;SDS011;65006;51.698;-0.292;2023-08-20T09:25:27;5.28;;;1.20;;
22476;SDS011;65006;51.698;-0.292;2023-08-20T09:27:53;4.15;;;0.90;;
22476;SDS011;65006;51.698;-0.292;2023-08-20T09:30:20;5.57;;;1.30;;
22476;SDS011;65006;51.698;-0.292;2023-08-20T09:35:17;5.82;;;0.77;;
22476;SDS011;65006;51.698;-0.292;2023-08-20T09:37:44;9.55;;;1.15;;
22476;SDS011;65006;51.698;-0.292;2023-08-20T09:40:10;4.65;;;0.90;;
22476;SDS011;65006;51.698;-0.292;2023-08-20T09:42:36;7.13;;;0.85;;
22476;SDS011;65006;51.698;-0.292;2023-08-20T09:45:02;5.20;;;0.65;;
22476;SDS011;65006;51.698;-0.292;2023-08-20T09:47:29;4.85;;;0.98;;
22476;SDS011;65006;51.698;-0.292;2023-08-20T09:49:59;4.57;;;1.20;;
22476;SDS011;65006;51.698;-0.292;2023-08-20T09:52:27;3.05;;;0.60;;
22476;SDS011;65006;51.698;-0.292;2023-08-20T09:55:00;5.63;;;0.90;;
22476;SDS011;65006;51.698;-0.292;2023-08-20T09:59:59;3.80;;;0.68;;
22476;SDS011;65006;51.698;-0.292;2023-08-20T10:02:26;5.55;;;0.90;;
22476;SDS011;65006;51.698;-0.292;2023-08-20T10:04:52;5.10;;;0.90;;
22476;SDS011;65006;51.698;-0.292;2023-08-20T10:07:18;3.08;;;0.70;;
22476;SDS011;65006;51.698;-0.292;2023-08-20T10:09:45;3.60;;;0.80;;
22476;SDS011;65006;51.698;-0.292;2023-08-20T10:12:12;3.10;;;0.80;;
22476;SDS011;65006;51.698;-0.292;2023-08-20T10:14:39;2.95;;;0.60;;
22476;SDS011;65006;51.698;-0.292;2023-08-20T10:17:06;4.68;;;0.88;;
22476;SDS011;65006;51.698;-0.292;2023-08-20T10:19:32;5.95;;;1.02;;
22476;SDS011;65006;51.698;-0.292;2023-08-20T10:24:24;4.72;;;0.68;;
22476;SDS011;65006;51.698;-0.292;2023-08-20T10:27:06;2.72;;;0.65;;
22476;SDS011;65006;51.698;-0.292;2023-08-20T10:32:09;4.65;;;0.88;;
22476;SDS011;65006;51.698;-0.292;2023-08-20T10:34:36;3.35;;;0.60;;
22476;SDS011;65006;51.698;-0.292;2023-08-20T10:37:08;2.70;;;0.57;;
22476;SDS011;65006;51.698;-0.292;2023-08-20T10:39:34;5.95;;;0.52;;
22476;SDS011;65006;51.698;-0.292;2023-08-20T10:42:11;1.27;;;0.50;;
22476;SDS011;65006;51.698;-0.292;2023-08-20T10:47:23;4.43;;;1.23;;
22476;SDS011;65006;51.698;-0.292;2023-08-20T10:49:53;5.85;;;0.70;;
22476;SDS011;65006;51.698;-0.292;2023-08-20T10:52:20;2.30;;;0.40;;
22476;SDS011;65006;51.698;-0.292;2023-08-20T10:54:49;1.65;;;0.30;;
22476;SDS011;65006;51.698;-0.292;2023-08-20T10:57:15;2.97;;;0.50;;
22476;SDS011;65006;51.698;-0.292;2023-08-20T10:59:41;2.65;;;0.68;;
22476;SDS011;65006;51.698;-0.292;2023-08-20T11:02:08;1.58;;;0.47;;
22476;SDS011;65006;51.698;-0.292;2023-08-20T11:04:36;3.05;;;0.45;;
22476;SDS011;65006;51.698;-0.292;2023-08-20T11:07:04;3.42;;;0.52;;
22476;SDS011;65006;51.698;-0.292;2023-08-20T11:09:30;1.73;;;0.40;;
22476;SDS011;65006;51.698;-0.292;2023-08-20T11:14:23;5.40;;;0.50;;
22476;SDS011;65006;51.698;-0.292;2023-08-20T11:16:49;3.00;;;0.80;;
22476;SDS011;65006;51.698;-0.292;2023-08-20T11:19:22;3.38;;;0.75;;
22476;SDS011;65006;51.698;-0.292;2023-08-20T11:21:48;1.92;;;0.63;;
22476;SDS011;65006;51.698;-0.292;2023-08-20T11:24:14;2.42;;;0.50;;
22476;SDS011;65006;51.698;-0.292;2023-08-20T11:26:42;4.30;;;0.60;;
22476;SDS011;65006;51.698;-0.292;2023-08-20T11:29:09;2.53;;;0.32;;
22476;SDS011;65006;51.698;-0.292;2023-08-20T11:31:36;5.03;;;0.98;;
22476;SDS011;65006;51.698;-0.292;2023-08-20T11:34:04;2.47;;;0.57;;
22476;SDS011;65006;51.698;-0.292;2023-08-20T11:36:31;1.73;;;0.70;;
22476;SDS011;65006;51.698;-0.292;2023-08-20T11:38:57;2.53;;;0.57;;
22476;SDS011;65006;51.698;-0.292;2023-08-20T11:41:24;2.38;;;0.50;;
22476;SDS011;65006;51.698;-0.292;2023-08-20T11:43:51;1.02;;;0.40;;
22476;SDS011;65006;51.698;-0.292;2023-08-20T11:46:18;2.08;;;0.43;;
22476;SDS011;65006;51.698;-0.292;2023-08-20T11:51:27;5.00;;;0.70;;
22476;SDS011;65006;51.698;-0.292;2023-08-20T11:56:18;3.90;;;0.25;;
22476;SDS011;65006;51.698;-0.292;2023-08-20T11:58:51;2.50;;;0.57;;
22476;SDS011;65006;51.698;-0.292;2023-08-20T12:01:20;2.00;;;0.40;;
22476;SDS011;65006;51.698;-0.292;2023-08-20T12:03:46;3.88;;;0.75;;
22476;SDS011;65006;51.698;-0.292;2023-08-20T12:06:16;0.98;;;0.30;;
22476;SDS011;65006;51.698;-0.292;2023-08-20T12:08:42;3.30;;;0.73;;
22476;SDS011;65006;51.698;-0.292;2023-08-20T12:11:08;2.17;;;0.40;;
22476;SDS011;65006;51.698;-0.292;2023-08-20T12:13:35;3.42;;;0.43;;
22476;SDS011;65006;51.698;-0.292;2023-08-20T12:16:01;5.88;;;0.90;;
22476;SDS011;65006;51.698;-0.292;2023-08-20T12:18:27;2.78;;;0.40;;
22476;SDS011;65006;51.698;-0.292;2023-08-20T12:20:54;3.05;;;0.40;;
22476;SDS011;65006;51.698;-0.292;2023-08-20T12:23:20;1.70;;;0.52;;
22476;SDS011;65006;51.698;-0.292;2023-08-20T12:25:49;2.95;;;0.40;;
22476;SDS011;65006;51.698;-0.292;2023-08-20T12:28:16;2.70;;;0.35;;
22476;SDS011;65006;51.698;-0.292;2023-08-20T12:30:42;4.25;;;0.60;;
22476;SDS011;65006;51.698;-0.292;2023-08-20T12:33:09;1.70;;;0.98;;
22476;SDS011;65006;51.698;-0.292;2023-08-20T12:35:36;3.05;;;0.50;;
22476;SDS011;65006;51.698;-0.292;2023-08-20T12:38:02;3.95;;;0.85;;
22476;SDS011;65006;51.698;-0.292;2023-08-20T12:40:29;3.75;;;0.68;;
22476;SDS011;65006;51.698;-0.292;2023-08-20T12:42:55;6.10;;;0.50;;
22476;SDS011;65006;51.698;-0.292;2023-08-20T12:45:21;4.50;;;0.55;;
22476;SDS011;65006;51.698;-0.292;2023-08-20T12:47:47;0.85;;;0.40;;
22476;SDS011;65006;51.698;-0.292;2023-08-20T12:50:13;1.45;;;0.45;;
22476;SDS011;65006;51.698;-0.292;2023-08-20T12:52:40;3.42;;;0.47;;
22476;SDS011;65006;51.698;-0.292;2023-08-20T12:57:34;2.85;;;0.50;;
22476;SDS011;65006;51.698;-0.292;2023-08-20T13:00:00;1.88;;;0.40;;
22476;SDS011;65006;51.698;-0.292;2023-08-20T13:02:26;3.63;;;0.60;;
22476;SDS011;65006;51.698;-0.292;2023-08-20T13:04:52;2.90;;;0.57;;
22476;SDS011;65006;51.698;-0.292;2023-08-20T13:07:18;3.50;;;0.60;;
22476;SDS011;65006;51.698;-0.292;2023-08-20T13:09:44;2.15;;;0.47;;
22476;SDS011;65006;51.698;-0.292;2023-08-20T13:12:10;1.48;;;0.50;;
22476;SDS011;65006;51.698;-0.292;2023-08-20T13:14:40;3.05;;;0.52;;
22476;SDS011;65006;51.698;-0.292;2023-08-20T13:17:06;2.15;;;0.80;;
22476;SDS011;65006;51.698;-0.292;2023-08-20T13:19:32;2.88;;;0.43;;
22476;SDS011;65006;51.698;-0.292;2023-08-20T13:21:58;2.35;;;0.55;;
22476;SDS011;65006;51.698;-0.292;2023-08-20T13:24:24;1.38;;;0.45;;
22476;SDS011;65006;51.698;-0.292;2023-08-20T13:26:50;3.03;;;0.73;;
22476;SDS011;65006;51.698;-0.292;2023-08-20T13:29:17;1.15;;;0.40;;
22476;SDS011;65006;51.698;-0.292;2023-08-20T13:31:43;2.55;;;0.35;;
22476;SDS011;65006;51.698;-0.292;2023-08-20T13:34:10;1.35;;;0.50;;
22476;SDS011;65006;51.698;-0.292;2023-08-20T13:36:36;3.72;;;0.52;;
22476;SDS011;65006;51.698;-0.292;2023-08-20T13:39:02;1.70;;;0.40;;
22476;SDS011;65006;51.698;-0.292;2023-08-20T13:41:28;1.77;;;0.30;;
22476;SDS011;65006;51.698;-0.292;2023-08-20T13:43:54;1.38;;;0.30;;
22476;SDS011;65006;51.698;-0.292;2023-08-20T13:46:20;4.07;;;0.50;;
22476;SDS011;65006;51.698;-0.292;2023-08-20T13:48:46;2.65;;;0.75;;
22476;SDS011;65006;51.698;-0.292;2023-08-20T13:51:13;1.67;;;0.45;;
22476;SDS011;65006;51.698;-0.292;2023-08-20T13:53:40;3.05;;;0.47;;
22476;SDS011;65006;51.698;-0.292;2023-08-20T13:56:06;4.50;;;0.50;;
22476;SDS011;65006;51.698;-0.292;2023-08-20T13:58:32;4.55;;;0.52;;
22476;SDS011;65006;51.698;-0.292;2023-08-20T14:00:58;3.28;;;0.60;;
22476;SDS011;65006;51.698;-0.292;2023-08-20T14:03:24;2.08;;;0.52;;
22476;SDS011;65006;51.698;-0.292;2023-08-20T14:05:50;1.25;;;0.52;;
22476;SDS011;65006;51.698;-0.292;2023-08-20T14:08:16;3.00;;;0.90;;
22476;SDS011;65006;51.698;-0.292;2023-08-20T14:10:42;2.63;;;0.50;;
22476;SDS011;65006;51.698;-0.292;2023-08-20T14:13:08;4.47;;;0.68;;
22476;SDS011;65006;51.698;-0.292;2023-08-20T14:15:34;1.55;;;0.55;;
22476;SDS011;65006;51.698;-0.292;2023-08-20T14:18:01;4.25;;;1.10;;
22476;SDS011;65006;51.698;-0.292;2023-08-20T14:20:27;2.75;;;0.60;;
22476;SDS011;65006;51.698;-0.292;2023-08-20T14:22:54;0.95;;;0.65;;
22476;SDS011;65006;51.698;-0.292;2023-08-20T14:25:20;3.65;;;0.60;;
22476;SDS011;65006;51.698;-0.292;2023-08-20T14:27:45;1.42;;;0.47;;
22476;SDS011;65006;51.698;-0.292;2023-08-20T14:30:12;2.05;;;0.50;;
22476;SDS011;65006;51.698;-0.292;2023-08-20T14:32:38;3.55;;;0.52;;
22476;SDS011;65006;51.698;-0.292;2023-08-20T14:35:04;1.27;;;0.50;;
22476;SDS011;65006;51.698;-0.292;2023-08-20T14:37:30;0.95;;;0.47;;
22476;SDS011;65006;51.698;-0.292;2023-08-20T14:39:56;1.45;;;0.52;;
22476;SDS011;65006;51.698;-0.292;2023-08-20T14:42:22;1.83;;;0.50;;
22476;SDS011;65006;51.698;-0.292;2023-08-20T14:44:48;1.77;;;0.38;;
22476;SDS011;65006;51.698;-0.292;2023-08-20T14:47:14;1.65;;;0.50;;
22476;SDS011;65006;51.698;-0.292;2023-08-20T14:49:40;4.03;;;0.60;;
22476;SDS011;65006;51.698;-0.292;2023-08-20T14:52:06;1.85;;;0.82;;
22476;SDS011;65006;51.698;-0.292;2023-08-20T14:54:32;1.08;;;0.30;;
22476;SDS011;65006;51.698;-0.292;2023-08-20T14:56:58;2.33;;;0.45;;
22476;SDS011;65006;51.698;-0.292;2023-08-20T14:59:24;4.03;;;0.47;;
22476;SDS011;65006;51.698;-0.292;2023-08-20T15:01:51;2.50;;;0.70;;
22476;SDS011;65006;51.698;-0.292;2023-08-20T15:04:17;1.52;;;0.57;;
22476;SDS011;65006;51.698;-0.292;2023-08-20T15:06:43;1.67;;;0.47;;
22476;SDS011;65006;51.698;-0.292;2023-08-20T15:09:09;0.68;;;0.30;;